Lodi, California
Current Conditions -  °F | °C
As of 5:55 PM on Friday 21 Nov 2014 (Local Time) from KSCK Reporting Station
Overcast Overcast  
Wind Chill: 56°   Ceiling: 7000
Heat Index: 56°   Visibility: 10mi
Dew Point: 51°   Wind: 5mph
Humidity: 84%   Direction: 70°ENE
Pressure: 30.11"   Gusts: NA
Location:  38.13°N, 121.27°W
Report Text: KSCK 220155Z 07004KT 10SM BKN070 OVC100 13/11 A3011 RMK AO2 SLP197 T01330106
Loading
Personal Weather Stations






























Interactive Weather Map New forecast layout! Learn more

10-Day Weather Forecast

Advertisements
Track Severe Weather on mobile